Time;durP1;ratioP1;P1;durP2;ratioP2;P2;SDS_P1;SDS_P2;PMS_P1;PMS_P2;Temp;Humidity;BMP_temperature;BMP_pressure;BME280_temperature;BME280_humidity;BME280_pressure;Samples;Min_cycle;Max_cycle;Signal;HPM_P1;HPM_P2
2022/06/08 00:01:51;;;;;;;5.83;3.27;;;20.60;99.90;;;;;;5050719;28;20485;-63
2022/06/08 00:04:22;;;;;;;5.23;3.80;;;20.60;99.90;;;;;;5050654;28;20504;-63
2022/06/08 00:06:51;;;;;;;5.63;4.10;;;20.60;99.90;;;;;;5050774;28;20919;-62
2022/06/08 00:09:18;;;;;;;7.20;4.13;;;20.80;99.90;;;;;;5050803;28;20446;-63
2022/06/08 00:11:45;;;;;;;8.13;4.20;;;20.90;99.90;;;;;;5050265;28;20559;-63
2022/06/08 00:14:14;;;;;;;5.27;3.30;;;21.00;99.90;;;;;;5050603;28;20873;-63
2022/06/08 00:16:42;;;;;;;5.50;3.40;;;21.10;99.90;;;;;;5050619;28;20458;-64
2022/06/08 00:19:09;;;;;;;5.90;3.80;;;21.10;99.90;;;;;;5050567;28;20551;-63
2022/06/08 00:21:36;;;;;;;5.73;3.80;;;21.10;99.90;;;;;;5050624;28;20473;-64
2022/06/08 00:24:05;;;;;;;5.83;3.90;;;21.10;99.90;;;;;;5050566;28;20953;-64
2022/06/08 00:26:32;;;;;;;6.10;3.97;;;21.00;99.90;;;;;;5050243;28;20553;-63
2022/06/08 00:28:59;;;;;;;5.73;3.30;;;21.00;99.90;;;;;;5049636;28;20457;-63
2022/06/08 00:31:26;;;;;;;5.80;4.00;;;21.10;99.90;;;;;;5050355;28;20477;-62
2022/06/08 00:33:53;;;;;;;5.00;3.50;;;21.10;99.90;;;;;;5050249;28;20450;-63
2022/06/08 00:36:20;;;;;;;6.50;3.57;;;21.00;99.90;;;;;;5050258;28;20856;-62
2022/06/08 00:38:47;;;;;;;5.10;3.30;;;21.00;99.90;;;;;;5049890;28;20457;-63
2022/06/08 00:41:30;;;;;;;5.70;3.70;;;21.00;99.90;;;;;;5049731;28;20536;-62
2022/06/08 00:43:57;;;;;;;5.27;3.60;;;21.00;99.90;;;;;;5049649;28;20501;-63
2022/06/08 00:46:25;;;;;;;7.27;3.80;;;21.00;99.90;;;;;;5050061;28;20516;-63
2022/06/08 00:48:59;;;;;;;5.37;3.20;;;21.00;99.90;;;;;;5049716;28;20823;-63
2022/06/08 00:51:27;;;;;;;5.23;3.67;;;21.00;99.90;;;;;;5049575;28;21047;-63
2022/06/08 00:53:57;;;;;;;9.10;3.40;;;20.90;99.90;;;;;;5049748;28;20481;-62
2022/06/08 00:56:32;;;;;;;8.27;3.40;;;21.00;99.90;;;;;;5049890;28;20456;-63
2022/06/08 00:59:00;;;;;;;5.47;4.20;;;20.90;99.90;;;;;;5049787;28;20531;-64
2022/06/08 01:01:27;;;;;;;6.07;3.50;;;20.80;99.90;;;;;;5049864;28;20477;-62
2022/06/08 01:04:07;;;;;;;8.53;4.13;;;20.60;99.90;;;;;;5049888;28;20454;-63
2022/06/08 01:06:35;;;;;;;5.30;3.67;;;20.40;99.90;;;;;;5049961;28;20523;-63
2022/06/08 01:09:03;;;;;;;8.40;3.90;;;20.40;99.90;;;;;;5049917;28;20453;-62
2022/06/08 01:11:37;;;;;;;5.53;3.90;;;20.30;99.90;;;;;;5049574;28;20470;-62
2022/06/08 01:14:08;;;;;;;5.87;3.50;;;20.20;99.90;;;;;;5049887;28;20836;-62
2022/06/08 01:16:35;;;;;;;7.43;4.07;;;20.10;99.90;;;;;;5049532;28;20458;-62
2022/06/08 01:19:04;;;;;;;6.50;3.80;;;20.00;99.90;;;;;;5049466;28;20454;-62
2022/06/08 01:22:03;;;;;;;5.43;3.67;;;19.90;99.90;;;;;;5049383;28;20473;-63
2022/06/08 01:24:31;;;;;;;5.13;3.60;;;19.80;99.90;;;;;;5007030;28;20455;-62
2022/06/08 01:27:13;;;;;;;6.97;3.60;;;19.70;99.90;;;;;;5040165;28;20918;-61
2022/06/08 01:29:46;;;;;;;5.73;4.00;;;19.60;99.90;;;;;;5049446;28;20446;-62
2022/06/08 01:32:21;;;;;;;5.30;3.40;;;19.50;99.90;;;;;;5049398;28;20501;-63
2022/06/08 01:35:02;;;;;;;4.87;3.43;;;19.60;99.90;;;;;;5049580;28;20449;-63
2022/06/08 01:37:41;;;;;;;4.87;3.40;;;19.40;99.90;;;;;;5049360;28;20473;-62
2022/06/08 01:40:30;;;;;;;6.03;3.57;;;19.30;99.90;;;;;;5051279;28;20489;-63
2022/06/08 01:43:16;;;;;;;6.43;4.10;;;19.20;99.90;;;;;;5053677;28;20858;-62
2022/06/08 01:45:54;;;;;;;7.17;3.80;;;19.20;99.90;;;;;;5053154;28;21009;-62
2022/06/08 01:48:41;;;;;;;6.20;3.83;;;19.20;99.90;;;;;;5053219;28;20929;-61
2022/06/08 01:51:22;;;;;;;5.87;4.00;;;19.30;99.90;;;;;;5053329;28;20465;-62
2022/06/08 01:53:58;;;;;;;6.17;4.80;;;19.30;99.90;;;;;;5053373;28;20449;-62
2022/06/08 01:56:33;;;;;;;7.07;3.47;;;19.40;99.90;;;;;;5053054;28;20445;-63
2022/06/08 01:59:16;;;;;;;5.50;4.10;;;19.40;99.90;;;;;;5053194;28;20456;-62
2022/06/08 02:01:48;;;;;;;7.00;4.43;;;19.00;99.90;;;;;;5053327;28;20473;-62
2022/06/08 02:04:30;;;;;;;5.73;4.10;;;18.60;99.90;;;;;;5053239;28;20457;-63
2022/06/08 02:07:07;;;;;;;6.37;4.40;;;18.40;99.90;;;;;;5052970;28;20456;-62
2022/06/08 02:09:41;;;;;;;6.00;4.70;;;18.20;99.90;;;;;;5053186;28;20452;-61
2022/06/08 02:12:11;;;;;;;5.90;3.90;;;18.40;99.90;;;;;;5053032;28;20905;-63
2022/06/08 02:14:42;;;;;;;6.60;4.93;;;18.70;99.90;;;;;;5052692;28;20463;-63
2022/06/08 02:17:16;;;;;;;7.03;4.20;;;18.90;99.90;;;;;;5052897;28;20457;-62
2022/06/08 02:19:47;;;;;;;6.23;4.63;;;19.00;99.90;;;;;;5052510;28;20489;-62
2022/06/08 02:22:20;;;;;;;12.00;4.87;;;19.20;99.90;;;;;;5052783;28;20466;-62
2022/06/08 02:24:55;;;;;;;5.60;4.03;;;19.20;99.90;;;;;;5052975;28;20526;-63
2022/06/08 02:27:29;;;;;;;9.10;4.20;;;19.30;99.90;;;;;;5052744;28;20460;-63
2022/06/08 02:30:03;;;;;;;7.10;4.63;;;19.50;99.90;;;;;;5052710;28;20450;-63
2022/06/08 02:35:24;;;;;;;7.30;4.50;;;19.80;99.90;;;;;;5052613;28;20812;-62
2022/06/08 02:37:56;;;;;;;6.67;4.60;;;19.60;99.90;;;;;;5052323;28;20449;-64
2022/06/08 02:40:28;;;;;;;10.30;4.90;;;19.20;99.90;;;;;;5052316;28;20493;-62
2022/06/08 02:43:01;;;;;;;7.50;5.57;;;18.80;99.90;;;;;;5052347;28;20450;-62
2022/06/08 02:45:31;;;;;;;10.30;5.77;;;18.50;99.90;;;;;;5052363;28;20481;-63
2022/06/08 02:48:02;;;;;;;7.17;5.63;;;18.30;99.90;;;;;;5052333;28;20781;-62
2022/06/08 02:50:31;;;;;;;7.73;6.00;;;18.60;99.90;;;;;;5051961;28;20523;-62
2022/06/08 02:53:25;;;;;;;6.53;4.93;;;18.90;99.90;;;;;;5052610;28;20449;-62
2022/06/08 02:56:04;;;;;;;10.40;5.53;;;19.30;99.90;;;;;;5052170;28;20462;-63
2022/06/08 02:58:39;;;;;;;7.73;6.17;;;19.40;99.90;;;;;;5052519;28;20812;-63
2022/06/08 03:01:14;;;;;;;7.23;6.40;;;19.10;99.90;;;;;;5051942;28;20577;-63
2022/06/08 03:03:47;;;;;;;8.00;5.87;;;18.40;99.90;;;;;;5051917;28;20838;-62
2022/06/08 03:06:18;;;;;;;8.43;5.53;;;18.50;99.90;;;;;;5052117;28;20461;-63
2022/06/08 03:08:52;;;;;;;8.87;7.03;;;18.20;99.90;;;;;;5052307;28;20519;-62
2022/06/08 03:11:22;;;;;;;8.40;5.73;;;18.00;99.90;;;;;;5051738;28;20469;-63
2022/06/08 03:14:01;;;;;;;6.60;5.83;;;18.30;99.90;;;;;;5052099;28;20965;-63
2022/06/08 03:16:30;;;;;;;8.00;6.13;;;18.50;99.90;;;;;;5051782;28;20863;-63
2022/06/08 03:18:58;;;;;;;9.13;6.00;;;18.30;99.90;;;;;;5051962;28;20445;-64
2022/06/08 03:21:26;;;;;;;7.97;6.50;;;18.10;99.90;;;;;;5051808;28;20489;-63
2022/06/08 03:23:54;;;;;;;7.90;5.73;;;18.10;99.90;;;;;;5051334;28;20485;-64
2022/06/08 03:26:24;;;;;;;7.43;6.63;;;18.10;99.90;;;;;;5051603;28;20527;-63
2022/06/08 03:28:52;;;;;;;9.13;6.00;;;18.30;99.90;;;;;;5051615;28;20462;-63
2022/06/08 03:31:19;;;;;;;6.60;4.90;;;18.60;99.90;;;;;;5051428;28;20539;-62
2022/06/08 03:33:46;;;;;;;8.10;5.37;;;18.80;99.90;;;;;;5051532;28;20453;-63
2022/06/08 03:36:13;;;;;;;8.90;5.10;;;18.90;99.90;;;;;;5051059;28;20462;-62
2022/06/08 03:38:42;;;;;;;8.90;5.67;;;19.10;99.90;;;;;;5051408;28;20458;-62
2022/06/08 03:41:10;;;;;;;5.97;5.30;;;19.30;99.90;;;;;;5051172;28;20496;-62
2022/06/08 03:43:39;;;;;;;7.37;5.37;;;19.40;99.90;;;;;;5050867;28;20489;-63
2022/06/08 03:46:08;;;;;;;6.77;4.70;;;19.60;99.90;;;;;;5051462;28;20755;-62
2022/06/08 03:48:35;;;;;;;7.37;5.67;;;19.80;99.90;;;;;;5051250;28;20825;-63
2022/06/08 03:51:02;;;;;;;6.60;5.50;;;20.00;99.90;;;;;;5050916;28;20974;-62
2022/06/08 03:53:34;;;;;;;6.60;5.00;;;20.20;99.90;;;;;;5051125;28;20922;-63
2022/06/08 03:56:03;;;;;;;6.43;5.47;;;20.30;99.90;;;;;;5051388;28;20453;-62
2022/06/08 03:58:31;;;;;;;8.33;6.60;;;20.10;99.90;;;;;;5051202;28;20450;-62
2022/06/08 04:01:00;;;;;;;7.37;6.07;;;20.00;99.90;;;;;;5050920;28;20503;-63
2022/06/08 04:03:27;;;;;;;5.63;4.97;;;19.80;99.90;;;;;;5050036;28;20560;-63
2022/06/08 04:05:54;;;;;;;10.50;5.23;;;19.80;99.90;;;;;;5050566;28;20454;-62
2022/06/08 04:08:21;;;;;;;6.90;5.70;;;19.90;99.90;;;;;;5050856;28;20446;-63
2022/06/08 04:10:48;;;;;;;8.77;5.07;;;20.10;99.90;;;;;;5050744;28;20474;-63
2022/06/08 04:13:15;;;;;;;9.90;7.07;;;20.30;99.90;;;;;;5050808;28;20454;-62
2022/06/08 04:15:43;;;;;;;8.87;6.07;;;20.40;99.90;;;;;;5050491;28;20465;-63
2022/06/08 04:18:13;;;;;;;10.43;6.80;;;20.30;99.90;;;;;;5050568;28;20453;-62
2022/06/08 04:20:41;;;;;;;8.70;6.43;;;20.60;99.90;;;;;;5050306;28;20886;-64
2022/06/08 04:23:10;;;;;;;8.10;6.30;;;20.60;99.90;;;;;;5050527;28;20458;-62
2022/06/08 04:25:38;;;;;;;9.43;6.70;;;20.70;99.90;;;;;;5051086;28;20576;-63
2022/06/08 04:28:06;;;;;;;7.20;6.00;;;20.70;99.90;;;;;;5050326;28;20461;-63
2022/06/08 04:30:33;;;;;;;8.80;6.50;;;20.70;99.90;;;;;;5050141;28;20458;-63
2022/06/08 04:33:01;;;;;;;8.03;6.57;;;20.70;99.90;;;;;;5050442;28;20454;-63
2022/06/08 04:35:30;;;;;;;7.30;5.90;;;20.90;99.90;;;;;;5050435;28;20450;-63
2022/06/08 04:37:57;;;;;;;9.60;7.60;;;20.70;99.90;;;;;;5050346;28;20885;-63
2022/06/08 04:40:24;;;;;;;8.87;6.80;;;20.80;99.90;;;;;;5050167;28;20498;-63
2022/06/08 04:42:51;;;;;;;9.13;6.53;;;20.90;99.90;;;;;;5050110;28;20461;-62
2022/06/08 04:45:19;;;;;;;8.50;6.13;;;21.10;99.90;;;;;;5049640;28;20551;-63
2022/06/08 04:47:46;;;;;;;9.40;7.47;;;21.30;99.90;;;;;;5050180;28;20507;-63
2022/06/08 04:50:13;;;;;;;8.50;6.90;;;21.50;99.90;;;;;;5049769;28;20453;-62
2022/06/08 04:52:43;;;;;;;8.00;6.20;;;21.50;99.90;;;;;;5050024;28;20474;-62
2022/06/08 04:55:12;;;;;;;9.03;7.03;;;21.70;99.90;;;;;;5050199;28;20457;-63
2022/06/08 04:57:39;;;;;;;11.00;8.00;;;21.90;99.90;;;;;;5050043;28;20545;-62
2022/06/08 05:00:10;;;;;;;12.03;8.57;;;21.90;99.90;;;;;;5049732;28;20457;-62
2022/06/08 05:02:48;;;;;;;11.03;8.07;;;21.80;99.90;;;;;;5050221;28;20596;-62
2022/06/08 05:05:19;;;;;;;14.60;8.17;;;21.70;99.90;;;;;;5049519;28;20820;-62
2022/06/08 05:07:47;;;;;;;9.60;7.67;;;21.70;99.90;;;;;;5049966;28;20999;-63
2022/06/08 05:10:15;;;;;;;9.17;7.40;;;21.70;99.90;;;;;;5049449;28;20458;-62
2022/06/08 05:12:43;;;;;;;11.10;9.10;;;21.80;99.90;;;;;;5049435;28;20524;-63
2022/06/08 05:15:13;;;;;;;8.90;7.90;;;22.00;99.90;;;;;;5049514;28;20454;-63
2022/06/08 05:17:40;;;;;;;10.90;8.40;;;22.20;99.90;;;;;;5049689;28;20450;-63
2022/06/08 05:20:09;;;;;;;9.17;7.43;;;22.20;99.90;;;;;;5049472;28;20479;-63
2022/06/08 05:22:37;;;;;;;9.57;7.30;;;22.30;99.90;;;;;;5049307;28;20477;-63
2022/06/08 05:25:08;;;;;;;10.03;7.67;;;22.40;99.90;;;;;;5049416;28;20461;-63
2022/06/08 05:27:35;;;;;;;9.10;7.83;;;22.30;99.90;;;;;;5049547;28;20511;-64
2022/06/08 05:30:02;;;;;;;9.37;7.00;;;22.40;99.90;;;;;;5049673;28;20553;-63
2022/06/08 05:32:29;;;;;;;8.43;6.83;;;22.60;99.90;;;;;;5049402;28;20470;-62
2022/06/08 05:34:56;;;;;;;8.70;7.20;;;22.70;99.90;;;;;;5049072;28;20930;-63
2022/06/08 05:37:23;;;;;;;9.30;7.63;;;22.90;99.90;;;;;;5049479;28;20458;-63
2022/06/08 05:39:50;;;;;;;10.67;7.37;;;22.90;99.90;;;;;;5049334;28;20461;-63
2022/06/08 05:42:19;;;;;;;9.13;7.87;;;22.70;99.90;;;;;;5049425;28;20786;-63
2022/06/08 05:44:46;;;;;;;10.60;6.80;;;22.40;99.90;;;;;;5049036;28;20884;-63
2022/06/08 05:47:13;;;;;;;10.23;7.20;;;22.30;99.90;;;;;;5049588;28;20454;-62
2022/06/08 05:49:40;;;;;;;10.70;7.17;;;22.20;99.90;;;;;;5049175;28;20460;-63
2022/06/08 05:52:08;;;;;;;10.87;8.73;;;22.10;99.90;;;;;;5048977;28;20466;-63
2022/06/08 05:54:35;;;;;;;12.13;9.23;;;22.10;99.90;;;;;;5049538;28;20597;-63
2022/06/08 05:57:02;;;;;;;13.80;9.03;;;22.10;99.90;;;;;;5049354;28;21072;-63
2022/06/08 05:59:31;;;;;;;12.33;7.53;;;22.50;99.90;;;;;;5049314;28;20450;-63
2022/06/08 06:01:58;;;;;;;10.77;6.43;;;22.70;99.90;;;;;;5049171;28;20493;-63
2022/06/08 06:04:25;;;;;;;9.80;7.07;;;22.70;99.90;;;;;;5049232;28;20458;-63
2022/06/08 06:06:52;;;;;;;10.53;7.00;;;22.90;99.90;;;;;;5049080;28;20503;-63
2022/06/08 06:09:20;;;;;;;10.73;6.23;;;22.80;99.90;;;;;;5049211;28;20470;-63
2022/06/08 06:11:49;;;;;;;9.63;6.37;;;22.80;99.90;;;;;;5049272;28;20580;-64
2022/06/08 06:14:16;;;;;;;9.30;6.60;;;22.80;99.90;;;;;;5049287;28;20512;-64
2022/06/08 06:16:45;;;;;;;7.80;6.57;;;22.70;99.90;;;;;;5049484;28;20524;-64
2022/06/08 06:19:12;;;;;;;7.40;5.80;;;22.80;99.90;;;;;;5049131;28;20928;-63
2022/06/08 06:21:39;;;;;;;8.07;6.43;;;22.90;99.90;;;;;;5049082;28;20493;-63
2022/06/08 06:24:07;;;;;;;7.63;6.10;;;23.20;99.90;;;;;;5049095;28;20519;-63
2022/06/08 06:26:34;;;;;;;8.17;6.80;;;23.50;99.90;;;;;;5051337;28;20540;-62
2022/06/08 06:29:01;;;;;;;10.90;6.80;;;23.80;99.90;;;;;;5052798;28;21002;-63
2022/06/08 06:31:41;;;;;;;7.90;6.17;;;24.00;99.90;;;;;;5052494;28;20523;-62
2022/06/08 06:34:11;;;;;;;9.10;7.60;;;24.00;99.90;;;;;;5052174;28;20461;-63
2022/06/08 06:36:38;;;;;;;10.93;5.30;;;24.00;99.90;;;;;;5052520;28;20446;-63
2022/06/08 06:39:05;;;;;;;12.43;6.00;;;24.10;99.90;;;;;;5052445;28;20952;-63
2022/06/08 06:41:33;;;;;;;9.70;6.10;;;24.50;99.90;;;;;;5052319;28;20535;-63
2022/06/08 06:44:00;;;;;;;7.27;5.20;;;24.80;99.90;;;;;;5051916;28;20890;-63
2022/06/08 06:46:27;;;;;;;11.10;6.30;;;25.10;99.90;;;;;;5052448;28;20944;-62
2022/06/08 06:48:54;;;;;;;9.33;5.07;;;25.30;99.90;;;;;;5052304;28;20446;-64
2022/06/08 06:51:23;;;;;;;11.57;5.70;;;25.50;99.90;;;;;;5051806;28;20819;-63
2022/06/08 06:53:50;;;;;;;12.10;5.00;;;25.80;99.90;;;;;;5052293;28;21012;-62
2022/06/08 06:56:17;;;;;;;13.73;6.33;;;26.10;99.90;;;;;;5052252;28;20453;-63
2022/06/08 06:58:48;;;;;;;23.67;8.47;;;26.10;99.90;;;;;;5051915;28;20937;-73
2022/06/08 07:01:15;;;;;;;10.13;5.83;;;26.10;99.90;;;;;;5051729;28;20525;-67
2022/06/08 07:03:42;;;;;;;8.60;5.30;;;26.20;99.90;;;;;;5052041;28;20457;-66
2022/06/08 07:06:10;;;;;;;7.73;5.67;;;26.30;99.90;;;;;;5052004;28;20454;-73
2022/06/08 07:08:39;;;;;;;11.30;7.10;;;26.50;99.90;;;;;;5052076;28;20942;-79
2022/06/08 07:13:47;;;;;;;6.17;4.27;;;26.90;99.90;;;;;;5038595;28;20725;-75
2022/06/08 07:16:15;;;;;;;6.73;4.20;;;27.00;99.10;;;;;;5051859;28;20544;-71
2022/06/08 07:18:42;;;;;;;5.80;3.80;;;27.20;99.10;;;;;;5051831;28;20452;-72
2022/06/08 07:21:11;;;;;;;5.40;4.17;;;27.30;98.10;;;;;;5051667;28;20490;-69
2022/06/08 07:23:40;;;;;;;5.90;3.47;;;27.40;98.20;;;;;;5051309;28;20478;-74
2022/06/08 07:26:07;;;;;;;6.80;3.97;;;27.50;97.60;;;;;;5051719;28;20503;-69
2022/06/08 07:28:34;;;;;;;7.07;4.07;;;27.60;98.10;;;;;;5051523;28;20449;-71
2022/06/08 07:31:01;;;;;;;7.60;4.03;;;27.70;97.80;;;;;;5051370;28;20957;-62
2022/06/08 07:33:28;;;;;;;7.07;5.13;;;27.80;96.10;;;;;;5051300;28;20462;-64
2022/06/08 07:35:57;;;;;;;6.70;3.60;;;28.10;94.90;;;;;;5050859;28;20461;-64
2022/06/08 07:38:24;;;;;;;5.67;3.40;;;28.20;93.60;;;;;;5050002;28;20485;-63
2022/06/08 07:40:52;;;;;;;6.97;3.90;;;27.90;91.50;;;;;;5051310;28;20822;-73
2022/06/08 07:43:20;;;;;;;5.30;3.60;;;27.60;91.90;;;;;;5050761;28;20544;-71
2022/06/08 07:45:47;;;;;;;8.70;3.20;;;27.50;92.60;;;;;;5051227;28;20454;-69
2022/06/08 07:50:59;;;;;;;5.10;2.33;;;27.80;91.20;;;;;;5051023;28;20476;-62
2022/06/08 07:53:26;;;;;;;4.97;2.77;;;27.80;86.40;;;;;;5050988;28;20485;-62
2022/06/08 07:55:55;;;;;;;4.33;2.73;;;27.90;88.60;;;;;;5050952;28;20461;-69
2022/06/08 07:58:22;;;;;;;4.60;2.90;;;28.10;86.40;;;;;;5051039;28;20458;-63
2022/06/08 08:00:49;;;;;;;4.80;3.00;;;28.30;83.70;;;;;;5051244;28;20999;-64
2022/06/08 08:03:16;;;;;;;5.67;3.33;;;28.20;82.50;;;;;;5050848;28;20485;-60
2022/06/08 08:05:45;;;;;;;6.97;3.40;;;28.10;81.10;;;;;;5050776;28;20450;-62
2022/06/08 08:08:13;;;;;;;6.53;3.10;;;27.80;81.70;;;;;;5050737;28;20860;-64
2022/06/08 08:10:40;;;;;;;6.20;3.33;;;27.80;85.30;;;;;;5050769;28;20499;-64
2022/06/08 08:13:09;;;;;;;7.03;3.87;;;27.80;81.60;;;;;;5050209;28;20450;-63
2022/06/08 08:15:36;;;;;;;7.83;4.10;;;27.80;83.40;;;;;;5050642;28;20791;-64
2022/06/08 08:18:04;;;;;;;4.60;2.73;;;27.60;83.20;;;;;;5050351;28;20446;-66
2022/06/08 08:20:32;;;;;;;6.40;3.30;;;27.60;82.50;;;;;;5050450;28;20476;-62
2022/06/08 08:22:59;;;;;;;5.13;3.00;;;27.70;81.60;;;;;;5050646;28;20513;-63
2022/06/08 08:25:28;;;;;;;6.97;4.40;;;27.80;83.00;;;;;;5050383;28;20469;-63
2022/06/08 08:27:56;;;;;;;6.03;3.53;;;27.80;83.00;;;;;;5050458;28;20468;-64
2022/06/08 08:30:28;;;;;;;5.83;3.20;;;28.10;84.60;;;;;;5050308;28;20458;-63
2022/06/08 08:32:56;;;;;;;5.07;3.10;;;28.30;83.80;;;;;;5050167;28;20453;-63
2022/06/08 08:35:24;;;;;;;5.40;3.23;;;28.20;79.20;;;;;;5050605;28;20824;-62
2022/06/08 08:37:53;;;;;;;6.57;3.17;;;28.30;81.20;;;;;;5050073;28;20454;-63
2022/06/08 08:40:39;;;;;;;6.70;3.50;;;28.30;79.70;;;;;;5050277;28;20523;-64
2022/06/08 08:43:09;;;;;;;6.37;3.13;;;28.30;79.60;;;;;;5049628;28;20985;-63
2022/06/08 08:45:45;;;;;;;4.60;3.17;;;28.50;78.10;;;;;;5050276;28;20551;-63
2022/06/08 08:48:20;;;;;;;4.73;2.67;;;28.70;80.00;;;;;;5049872;28;20457;-63
2022/06/08 08:50:53;;;;;;;8.57;3.43;;;28.90;80.30;;;;;;5050132;28;20454;-63
2022/06/08 08:53:25;;;;;;;6.13;3.33;;;28.90;75.70;;;;;;5050082;28;20437;-63
2022/06/08 08:55:58;;;;;;;5.10;3.03;;;28.90;78.80;;;;;;5049873;28;20466;-64
2022/06/08 08:58:29;;;;;;;4.73;2.63;;;28.90;72.70;;;;;;5049913;28;20454;-64
2022/06/08 09:01:00;;;;;;;4.20;2.27;;;28.80;73.90;;;;;;5049774;28;21016;-63
2022/06/08 09:03:34;;;;;;;4.23;2.90;;;28.90;74.10;;;;;;5049736;28;20571;-64
2022/06/08 09:06:07;;;;;;;7.93;2.70;;;28.70;73.40;;;;;;5049388;28;20571;-62
2022/06/08 09:08:34;;;;;;;6.17;3.00;;;28.30;74.50;;;;;;5049289;28;20452;-63
2022/06/08 09:11:03;;;;;;;4.97;2.20;;;28.00;73.40;;;;;;5049662;28;20868;-63
2022/06/08 09:13:46;;;;;;;8.13;4.30;;;28.10;73.60;;;;;;5049489;28;20977;-64
2022/06/08 09:16:29;;;;;;;4.93;3.30;;;28.30;76.50;;;;;;5049578;28;20454;-63
2022/06/08 09:18:57;;;;;;;4.67;2.20;;;28.70;77.50;;;;;;5049442;28;20489;-64
2022/06/08 09:21:28;;;;;;;3.90;2.00;;;28.90;74.30;;;;;;5049539;28;20450;-63
2022/06/08 09:23:57;;;;;;;4.53;2.80;;;29.10;75.70;;;;;;5049073;28;20485;-63
2022/06/08 09:26:35;;;;;;;6.97;3.10;;;29.20;73.30;;;;;;5049630;28;20964;-63
2022/06/08 09:29:13;;;;;;;4.97;2.90;;;29.30;72.10;;;;;;5049323;28;20953;-62
2022/06/08 09:31:42;;;;;;;6.60;2.50;;;29.40;68.80;;;;;;5049422;28;20505;-62
2022/06/08 09:34:18;;;;;;;6.77;2.20;;;29.10;69.80;;;;;;5049484;28;20535;-62
2022/06/08 09:36:46;;;;;;;5.03;2.63;;;29.20;72.90;;;;;;5049511;28;20445;-63
2022/06/08 09:39:16;;;;;;;4.73;2.40;;;29.50;71.10;;;;;;5049304;28;20527;-62
2022/06/08 09:41:50;;;;;;;4.40;2.30;;;29.60;69.30;;;;;;5049007;28;20969;-63
2022/06/08 09:44:23;;;;;;;4.43;2.47;;;29.80;67.40;;;;;;5048817;28;20597;-62
2022/06/08 09:53:02;;;;;;;5.50;2.40;;;30.40;67.30;;;;;;5049263;28;20453;-62
2022/06/08 09:55:53;;;;;;;6.50;3.20;;;30.40;65.90;;;;;;5048776;28;20964;-63
2022/06/08 09:58:36;;;;;;;4.30;2.27;;;30.50;65.90;;;;;;5048991;28;20890;-62
2022/06/08 10:01:12;;;;;;;4.17;2.17;;;30.30;64.20;;;;;;5050405;28;20458;-62
2022/06/08 10:03:55;;;;;;;4.63;2.03;;;30.30;67.00;;;;;;5053143;28;20489;-63
2022/06/08 10:06:29;;;;;;;6.47;1.73;;;30.40;64.70;;;;;;5052969;28;20528;-64
2022/06/08 10:09:05;;;;;;;4.60;1.73;;;30.50;64.40;;;;;;5053075;28;20449;-62
2022/06/08 10:11:41;;;;;;;5.40;2.20;;;30.60;65.90;;;;;;5053164;28;20464;-63
2022/06/08 10:14:23;;;;;;;5.33;2.23;;;30.70;64.70;;;;;;5053031;28;20473;-63
2022/06/08 10:16:56;;;;;;;3.70;1.90;;;30.40;61.70;;;;;;5053013;28;20453;-64
2022/06/08 10:19:30;;;;;;;5.07;1.90;;;30.50;63.70;;;;;;5052861;28;20480;-62
2022/06/08 10:22:01;;;;;;;5.00;2.23;;;30.50;62.90;;;;;;5052595;28;20477;-62
2022/06/08 10:24:33;;;;;;;5.13;3.10;;;30.70;65.40;;;;;;5052619;28;20836;-63
2022/06/08 10:27:07;;;;;;;4.60;2.40;;;30.80;64.50;;;;;;5052564;28;20485;-63
2022/06/08 10:29:42;;;;;;;5.90;2.70;;;30.90;64.00;;;;;;5052717;28;20450;-62
2022/06/08 10:32:16;;;;;;;5.20;1.93;;;31.10;64.90;;;;;;5052755;28;20468;-61
2022/06/08 10:34:52;;;;;;;5.37;2.57;;;31.30;64.80;;;;;;5052653;28;20473;-63
2022/06/08 10:37:22;;;;;;;4.10;2.13;;;31.20;65.40;;;;;;5052697;28;20510;-63
2022/06/08 10:39:51;;;;;;;6.90;3.87;;;31.40;64.80;;;;;;5052465;28;20457;-63
2022/06/08 10:42:42;;;;;;;7.57;3.70;;;31.60;62.50;;;;;;5052429;28;20493;-63
2022/06/08 10:45:31;;;;;;;6.93;3.63;;;31.80;62.50;;;;;;5052323;28;20519;-62
2022/06/08 10:48:01;;;;;;;4.87;3.00;;;31.90;61.00;;;;;;5052066;28;20930;-63
2022/06/08 10:50:34;;;;;;;6.47;2.50;;;31.90;61.30;;;;;;5052060;28;20565;-64
2022/06/08 10:56:48;;;;;;;3.80;1.97;;;32.20;61.50;;;;;;5052159;28;20453;-65
2022/06/08 10:59:18;;;;;;;3.97;2.10;;;32.40;60.60;;;;;;5052071;28;20942;-65
2022/06/08 11:01:56;;;;;;;8.47;2.87;;;32.60;60.20;;;;;;5052212;28;20495;-65
2022/06/08 11:04:50;;;;;;;5.30;2.53;;;32.60;59.10;;;;;;5051687;28;20465;-65
2022/06/08 11:07:19;;;;;;;7.13;2.57;;;32.70;59.30;;;;;;5052022;28;20833;-64
2022/06/08 11:09:54;;;;;;;5.60;3.00;;;32.80;58.90;;;;;;5052148;28;20445;-62
2022/06/08 11:12:47;;;;;;;4.83;2.53;;;32.70;58.20;;;;;;5051680;28;20522;-63
2022/06/08 11:15:27;;;;;;;6.90;2.97;;;32.30;56.90;;;;;;5051762;28;20466;-62
2022/06/08 11:17:58;;;;;;;6.30;3.73;;;32.30;58.60;;;;;;5051835;28;20452;-62
2022/06/08 11:20:36;;;;;;;4.50;2.60;;;32.30;59.70;;;;;;5051919;28;20536;-62
2022/06/08 11:23:07;;;;;;;6.80;4.23;;;32.40;57.50;;;;;;5051783;28;20496;-63
2022/06/08 11:25:48;;;;;;;10.60;3.43;;;32.50;58.60;;;;;;5051387;28;20584;-63
2022/06/08 11:28:30;;;;;;;8.80;5.37;;;32.70;58.20;;;;;;5051892;28;20454;-63
2022/06/08 11:31:00;;;;;;;6.90;4.00;;;32.90;57.10;;;;;;5051434;28;20503;-62
2022/06/08 11:33:56;;;;;;;6.27;4.50;;;33.10;57.00;;;;;;5051879;28;20442;-64
2022/06/08 11:36:54;;;;;;;7.47;4.97;;;33.30;55.30;;;;;;5049307;28;20461;-64
2022/06/08 11:39:27;;;;;;;5.40;3.40;;;33.40;55.70;;;;;;5051594;28;20949;-63
2022/06/08 11:42:15;;;;;;;4.77;3.37;;;33.40;56.30;;;;;;5051500;28;20450;-63
2022/06/08 11:44:48;;;;;;;4.77;3.03;;;33.50;54.60;;;;;;5051040;28;20575;-62
2022/06/08 11:47:21;;;;;;;5.13;2.53;;;33.40;54.60;;;;;;5051167;28;20488;-62
2022/06/08 11:49:57;;;;;;;5.07;2.50;;;33.60;57.10;;;;;;5051361;28;20930;-63
2022/06/08 11:52:37;;;;;;;4.33;2.53;;;33.70;55.40;;;;;;5051180;28;20473;-63
2022/06/08 11:55:23;;;;;;;5.93;3.50;;;33.90;54.60;;;;;;5051070;28;20462;-63
2022/06/08 11:57:55;;;;;;;3.90;2.30;;;34.20;54.60;;;;;;5051055;28;20449;-62
2022/06/08 12:00:33;;;;;;;6.70;2.43;;;34.20;54.60;;;;;;5051029;28;20453;-64
2022/06/08 12:03:04;;;;;;;3.90;1.90;;;34.30;53.60;;;;;;5050891;28;20485;-64
2022/06/08 12:05:36;;;;;;;5.73;2.10;;;34.30;51.10;;;;;;5050924;28;20517;-63
2022/06/08 12:08:13;;;;;;;4.07;2.30;;;34.30;52.20;;;;;;5051112;28;20450;-63
2022/06/08 12:10:41;;;;;;;4.07;1.93;;;34.40;52.70;;;;;;5051021;28;20452;-69
2022/06/08 12:13:18;;;;;;;4.87;2.33;;;34.60;52.10;;;;;;5050883;28;20453;-63
2022/06/08 12:15:49;;;;;;;5.13;2.30;;;34.30;50.30;;;;;;5050369;28;20973;-64
2022/06/08 12:18:45;;;;;;;5.50;2.40;;;33.80;53.30;;;;;;5050554;28;21005;-64
2022/06/08 12:21:31;;;;;;;4.40;2.07;;;33.90;53.50;;;;;;5050565;28;20445;-65
2022/06/08 12:24:21;;;;;;;4.97;2.67;;;34.10;51.50;;;;;;5049372;28;20841;-64
2022/06/08 12:27:00;;;;;;;5.07;2.50;;;34.30;51.70;;;;;;5046906;28;20473;-63
2022/06/08 12:29:38;;;;;;;5.33;2.60;;;34.50;52.30;;;;;;5050529;28;20460;-64
2022/06/08 12:32:22;;;;;;;5.50;2.00;;;34.40;51.20;;;;;;5050280;28;20446;-63
2022/06/08 12:34:51;;;;;;;5.07;2.57;;;34.20;50.20;;;;;;5050202;28;20478;-64
2022/06/08 12:37:43;;;;;;;4.93;2.80;;;34.10;51.70;;;;;;5049867;28;20458;-64
2022/06/08 12:40:32;;;;;;;4.83;2.43;;;34.30;54.80;;;;;;5050218;28;20450;-64
2022/06/08 12:43:18;;;;;;;5.03;2.33;;;34.80;52.50;;;;;;5049795;28;20993;-64
2022/06/08 12:46:23;;;;;;;4.07;2.20;;;35.00;50.30;;;;;;5049518;28;20489;-64
2022/06/08 12:48:58;;;;;;;5.07;2.60;;;35.40;50.90;;;;;;5046431;28;20872;-63
2022/06/08 12:51:40;;;;;;;4.47;2.60;;;35.30;49.30;;;;;;5049890;28;20515;-64
2022/06/08 12:54:15;;;;;;;5.90;2.80;;;35.30;50.80;;;;;;5049609;28;20485;-63
2022/06/08 12:56:44;;;;;;;9.03;3.77;;;35.00;48.60;;;;;;5050207;28;20453;-64
2022/06/08 12:59:11;;;;;;;6.57;3.37;;;34.80;50.40;;;;;;5049998;28;20873;-64
2022/06/08 13:01:41;;;;;;;4.10;2.10;;;35.00;50.60;;;;;;5049552;28;20548;-64
2022/06/08 13:04:09;;;;;;;6.20;2.70;;;34.40;49.10;;;;;;5049529;28;20525;-64
2022/06/08 13:06:36;;;;;;;5.30;2.43;;;34.20;49.90;;;;;;5049659;28;20453;-64
2022/06/08 13:09:04;;;;;;;5.80;2.57;;;34.00;51.70;;;;;;5049887;28;20449;-64
2022/06/08 13:11:31;;;;;;;4.47;2.30;;;33.70;51.10;;;;;;5049259;28;20462;-64
2022/06/08 13:13:58;;;;;;;5.40;2.13;;;33.40;50.80;;;;;;5049312;28;20478;-63
2022/06/08 13:16:28;;;;;;;4.77;2.50;;;33.40;51.10;;;;;;5049483;28;20450;-66
2022/06/08 13:18:58;;;;;;;4.73;2.63;;;33.40;52.30;;;;;;5049787;28;20450;-64
2022/06/08 13:21:27;;;;;;;6.90;2.63;;;33.40;50.30;;;;;;5049706;28;20439;-65
2022/06/08 13:23:55;;;;;;;5.23;2.30;;;33.50;50.30;;;;;;5049625;28;20907;-64
2022/06/08 13:26:24;;;;;;;5.13;3.10;;;33.50;49.70;;;;;;5049482;28;20908;-65
2022/06/08 13:28:53;;;;;;;4.23;2.50;;;33.30;51.20;;;;;;5049593;28;20540;-65